sensor_id;sensor_type;location;lat;lon;timestamp;pressure;altitude;pressure_sealevel;temperature;humidity
62708;BME280;48769;51.624;5.886;2022-10-16T00:02:15;100873.81;;;14.42;100.00
62708;BME280;48769;51.624;5.886;2022-10-16T00:04:41;100875.56;;;14.43;100.00
62708;BME280;48769;51.624;5.886;2022-10-16T00:07:06;100878.94;;;14.45;100.00
62708;BME280;48769;51.624;5.886;2022-10-16T00:09:32;100877.72;;;14.51;100.00
62708;BME280;48769;51.624;5.886;2022-10-16T00:11:57;100877.03;;;14.47;100.00
62708;BME280;48769;51.624;5.886;2022-10-16T00:14:22;100874.25;;;14.48;100.00
62708;BME280;48769;51.624;5.886;2022-10-16T00:16:48;100876.84;;;14.50;100.00
62708;BME280;48769;51.624;5.886;2022-10-16T00:19:13;100873.25;;;14.51;100.00
62708;BME280;48769;51.624;5.886;2022-10-16T00:21:38;100877.59;;;14.52;100.00
62708;BME280;48769;51.624;5.886;2022-10-16T00:24:06;100866.03;;;14.53;100.00
62708;BME280;48769;51.624;5.886;2022-10-16T00:26:34;100867.25;;;14.47;100.00
62708;BME280;48769;51.624;5.886;2022-10-16T00:28:59;100868.09;;;14.48;100.00
62708;BME280;48769;51.624;5.886;2022-10-16T00:31:25;100871.72;;;14.47;100.00
62708;BME280;48769;51.624;5.886;2022-10-16T00:33:51;100870.22;;;14.43;100.00
62708;BME280;48769;51.624;5.886;2022-10-16T00:36:19;100874.59;;;14.44;100.00
62708;BME280;48769;51.624;5.886;2022-10-16T00:38:45;100875.31;;;14.46;100.00
62708;BME280;48769;51.624;5.886;2022-10-16T00:41:16;100868.31;;;14.45;100.00
62708;BME280;48769;51.624;5.886;2022-10-16T00:43:47;100869.16;;;14.45;100.00
62708;BME280;48769;51.624;5.886;2022-10-16T00:46:34;100873.81;;;14.42;100.00
62708;BME280;48769;51.624;5.886;2022-10-16T00:49:05;100871.16;;;14.42;100.00
62708;BME280;48769;51.624;5.886;2022-10-16T00:51:49;100875.97;;;14.37;100.00
62708;BME280;48769;51.624;5.886;2022-10-16T00:54:29;100877.84;;;14.35;100.00
62708;BME280;48769;51.624;5.886;2022-10-16T00:56:57;100879.53;;;14.36;100.00
62708;BME280;48769;51.624;5.886;2022-10-16T00:59:30;100885.06;;;14.33;100.00
62708;BME280;48769;51.624;5.886;2022-10-16T01:01:56;100871.25;;;14.27;100.00
62708;BME280;48769;51.624;5.886;2022-10-16T01:04:23;100881.88;;;14.27;100.00
62708;BME280;48769;51.624;5.886;2022-10-16T01:09:54;100870.38;;;14.14;100.00
62708;BME280;48769;51.624;5.886;2022-10-16T01:12:41;100869.41;;;14.15;100.00
62708;BME280;48769;51.624;5.886;2022-10-16T01:15:26;100872.81;;;14.17;100.00
62708;BME280;48769;51.624;5.886;2022-10-16T01:23:27;100865.34;;;14.10;100.00
62708;BME280;48769;51.624;5.886;2022-10-16T01:28:34;100863.41;;;13.99;100.00
62708;BME280;48769;51.624;5.886;2022-10-16T01:31:02;100867.34;;;14.06;100.00
62708;BME280;48769;51.624;5.886;2022-10-16T01:33:51;100864.69;;;14.06;100.00
62708;BME280;48769;51.624;5.886;2022-10-16T01:36:24;100876.28;;;14.05;100.00
62708;BME280;48769;51.624;5.886;2022-10-16T01:38:52;100867.53;;;14.03;100.00
62708;BME280;48769;51.624;5.886;2022-10-16T01:41:41;100864.25;;;13.99;100.00
62708;BME280;48769;51.624;5.886;2022-10-16T01:44:11;100869.91;;;14.08;100.00
62708;BME280;48769;51.624;5.886;2022-10-16T01:46:42;100869.06;;;14.07;100.00
62708;BME280;48769;51.624;5.886;2022-10-16T01:49:09;100870.97;;;14.05;100.00
62708;BME280;48769;51.624;5.886;2022-10-16T01:51:37;100885.09;;;14.06;100.00
62708;BME280;48769;51.624;5.886;2022-10-16T01:54:05;100877.13;;;14.06;100.00
62708;BME280;48769;51.624;5.886;2022-10-16T01:56:34;100882.88;;;14.12;100.00
62708;BME280;48769;51.624;5.886;2022-10-16T01:59:10;100873.75;;;14.16;100.00
62708;BME280;48769;51.624;5.886;2022-10-16T02:01:39;100880.38;;;14.23;100.00
62708;BME280;48769;51.624;5.886;2022-10-16T02:04:18;100874.19;;;14.23;100.00
62708;BME280;48769;51.624;5.886;2022-10-16T02:06:46;100892.91;;;14.21;100.00
62708;BME280;48769;51.624;5.886;2022-10-16T02:09:11;100887.59;;;14.21;100.00
62708;BME280;48769;51.624;5.886;2022-10-16T02:11:37;100893.09;;;14.18;100.00
62708;BME280;48769;51.624;5.886;2022-10-16T02:14:05;100882.47;;;14.18;100.00
62708;BME280;48769;51.624;5.886;2022-10-16T02:16:36;100887.16;;;14.15;100.00
62708;BME280;48769;51.624;5.886;2022-10-16T02:19:03;100882.69;;;14.15;100.00
62708;BME280;48769;51.624;5.886;2022-10-16T02:21:34;100885.69;;;14.23;100.00
62708;BME280;48769;51.624;5.886;2022-10-16T02:24:14;100892.72;;;14.24;100.00
62708;BME280;48769;51.624;5.886;2022-10-16T02:26:51;100894.97;;;14.31;100.00
62708;BME280;48769;51.624;5.886;2022-10-16T02:29:23;100884.00;;;14.35;100.00
62708;BME280;48769;51.624;5.886;2022-10-16T02:31:54;100880.41;;;14.36;100.00
62708;BME280;48769;51.624;5.886;2022-10-16T02:34:21;100884.88;;;14.36;100.00
62708;BME280;48769;51.624;5.886;2022-10-16T02:36:48;100885.25;;;14.30;100.00
62708;BME280;48769;51.624;5.886;2022-10-16T02:39:16;100880.59;;;14.20;100.00
62708;BME280;48769;51.624;5.886;2022-10-16T02:41:42;100877.16;;;14.18;100.00
62708;BME280;48769;51.624;5.886;2022-10-16T02:44:08;100870.16;;;14.17;100.00
62708;BME280;48769;51.624;5.886;2022-10-16T02:46:33;100877.38;;;14.15;100.00
62708;BME280;48769;51.624;5.886;2022-10-16T02:48:58;100871.41;;;14.12;100.00
62708;BME280;48769;51.624;5.886;2022-10-16T02:51:24;100887.34;;;14.12;100.00
62708;BME280;48769;51.624;5.886;2022-10-16T02:53:49;100891.16;;;14.08;100.00
62708;BME280;48769;51.624;5.886;2022-10-16T02:56:14;100881.59;;;14.05;100.00
62708;BME280;48769;51.624;5.886;2022-10-16T02:58:40;100882.34;;;14.07;100.00
62708;BME280;48769;51.624;5.886;2022-10-16T03:01:05;100870.13;;;14.05;100.00
62708;BME280;48769;51.624;5.886;2022-10-16T03:03:31;100870.19;;;14.03;100.00
62708;BME280;48769;51.624;5.886;2022-10-16T03:05:56;100867.53;;;14.03;100.00
62708;BME280;48769;51.624;5.886;2022-10-16T03:08:22;100859.78;;;14.00;100.00
62708;BME280;48769;51.624;5.886;2022-10-16T03:10:50;100868.91;;;13.96;100.00
62708;BME280;48769;51.624;5.886;2022-10-16T03:13:15;100870.78;;;13.94;100.00
62708;BME280;48769;51.624;5.886;2022-10-16T03:15:40;100877.72;;;13.96;100.00
62708;BME280;48769;51.624;5.886;2022-10-16T03:18:06;100884.19;;;13.92;100.00
62708;BME280;48769;51.624;5.886;2022-10-16T03:20:31;100888.09;;;13.87;100.00
62708;BME280;48769;51.624;5.886;2022-10-16T03:22:58;100891.69;;;13.86;100.00
62708;BME280;48769;51.624;5.886;2022-10-16T03:25:23;100889.03;;;13.86;100.00
62708;BME280;48769;51.624;5.886;2022-10-16T03:27:48;100893.59;;;13.84;100.00
62708;BME280;48769;51.624;5.886;2022-10-16T03:30:14;100895.31;;;13.85;100.00
62708;BME280;48769;51.624;5.886;2022-10-16T03:32:39;100909.13;;;13.90;100.00
62708;BME280;48769;51.624;5.886;2022-10-16T03:35:05;100904.78;;;13.89;100.00
62708;BME280;48769;51.624;5.886;2022-10-16T03:37:30;100915.28;;;13.90;100.00
62708;BME280;48769;51.624;5.886;2022-10-16T03:39:56;100912.94;;;13.86;100.00
62708;BME280;48769;51.624;5.886;2022-10-16T03:42:21;100922.78;;;13.84;100.00
62708;BME280;48769;51.624;5.886;2022-10-16T03:44:46;100920.16;;;13.84;100.00
62708;BME280;48769;51.624;5.886;2022-10-16T03:47:12;100923.56;;;13.86;100.00
62708;BME280;48769;51.624;5.886;2022-10-16T03:49:37;100918.91;;;13.89;100.00
62708;BME280;48769;51.624;5.886;2022-10-16T03:52:03;100916.56;;;13.85;100.00
62708;BME280;48769;51.624;5.886;2022-10-16T03:54:28;100912.84;;;13.87;100.00
62708;BME280;48769;51.624;5.886;2022-10-16T03:56:54;100924.41;;;13.86;100.00
62708;BME280;48769;51.624;5.886;2022-10-16T03:59:19;100929.72;;;13.86;100.00
62708;BME280;48769;51.624;5.886;2022-10-16T04:01:44;100927.19;;;13.85;100.00
62708;BME280;48769;51.624;5.886;2022-10-16T04:04:10;100925.25;;;13.87;100.00
62708;BME280;48769;51.624;5.886;2022-10-16T04:06:35;100934.00;;;13.89;100.00
62708;BME280;48769;51.624;5.886;2022-10-16T04:09:00;100937.59;;;13.88;100.00
62708;BME280;48769;51.624;5.886;2022-10-16T04:11:26;100927.00;;;13.88;100.00
62708;BME280;48769;51.624;5.886;2022-10-16T04:13:51;100933.41;;;13.84;100.00
62708;BME280;48769;51.624;5.886;2022-10-16T04:16:16;100933.22;;;13.87;100.00
62708;BME280;48769;51.624;5.886;2022-10-16T04:18:42;100923.75;;;13.83;100.00
62708;BME280;48769;51.624;5.886;2022-10-16T04:21:07;100933.41;;;13.84;100.00
62708;BME280;48769;51.624;5.886;2022-10-16T04:23:33;100930.56;;;13.87;100.00
62708;BME280;48769;51.624;5.886;2022-10-16T04:25:59;100931.16;;;13.92;100.00
62708;BME280;48769;51.624;5.886;2022-10-16T04:28:24;100935.50;;;13.93;100.00
62708;BME280;48769;51.624;5.886;2022-10-16T04:30:50;100937.66;;;14.00;100.00
62708;BME280;48769;51.624;5.886;2022-10-16T04:33:15;100942.13;;;14.00;100.00
62708;BME280;48769;51.624;5.886;2022-10-16T04:35:41;100943.66;;;14.04;100.00
62708;BME280;48769;51.624;5.886;2022-10-16T04:38:06;100945.53;;;14.02;100.00
62708;BME280;48769;51.624;5.886;2022-10-16T04:40:31;100949.88;;;14.03;100.00
62708;BME280;48769;51.624;5.886;2022-10-16T04:43:02;100949.16;;;14.01;100.00
62708;BME280;48769;51.624;5.886;2022-10-16T04:45:28;100955.41;;;14.00;100.00
62708;BME280;48769;51.624;5.886;2022-10-16T04:47:57;100960.63;;;14.01;100.00
62708;BME280;48769;51.624;5.886;2022-10-16T04:50:22;100961.84;;;13.96;100.00
62708;BME280;48769;51.624;5.886;2022-10-16T04:52:48;100951.25;;;13.96;100.00
62708;BME280;48769;51.624;5.886;2022-10-16T04:55:13;100964.31;;;13.99;100.00
62708;BME280;48769;51.624;5.886;2022-10-16T04:57:38;100963.47;;;13.98;100.00
62708;BME280;48769;51.624;5.886;2022-10-16T05:00:04;100951.25;;;13.96;100.00
62708;BME280;48769;51.624;5.886;2022-10-16T05:02:30;100959.13;;;13.97;100.00
62708;BME280;48769;51.624;5.886;2022-10-16T05:04:55;100964.72;;;13.93;100.00
62708;BME280;48769;51.624;5.886;2022-10-16T05:07:21;100965.47;;;13.95;100.00
62708;BME280;48769;51.624;5.886;2022-10-16T05:09:46;100966.97;;;13.99;100.00
62708;BME280;48769;51.624;5.886;2022-10-16T05:12:11;100974.00;;;14.00;100.00
62708;BME280;48769;51.624;5.886;2022-10-16T05:14:37;100975.72;;;14.01;100.00
62708;BME280;48769;51.624;5.886;2022-10-16T05:17:02;100975.78;;;13.99;100.00
62708;BME280;48769;51.624;5.886;2022-10-16T05:19:27;100979.28;;;14.00;100.00
62708;BME280;48769;51.624;5.886;2022-10-16T05:21:53;100982.91;;;13.99;100.00
62708;BME280;48769;51.624;5.886;2022-10-16T05:24:18;100982.91;;;13.99;100.00
62708;BME280;48769;51.624;5.886;2022-10-16T05:26:43;100989.47;;;13.93;100.00
62708;BME280;48769;51.624;5.886;2022-10-16T05:29:09;100982.44;;;13.92;100.00
62708;BME280;48769;51.624;5.886;2022-10-16T05:31:34;100998.09;;;13.97;100.00
62708;BME280;48769;51.624;5.886;2022-10-16T05:33:59;101000.75;;;13.97;100.00
62708;BME280;48769;51.624;5.886;2022-10-16T05:36:25;100997.16;;;13.98;100.00
62708;BME280;48769;51.624;5.886;2022-10-16T05:38:51;101006.94;;;13.97;100.00
62708;BME280;48769;51.624;5.886;2022-10-16T05:41:16;101004.16;;;13.99;100.00
62708;BME280;48769;51.624;5.886;2022-10-16T05:43:49;101014.78;;;13.99;100.00
62708;BME280;48769;51.624;5.886;2022-10-16T05:46:15;101012.50;;;13.93;100.00
62708;BME280;48769;51.624;5.886;2022-10-16T05:48:41;101008.81;;;13.95;100.00
62708;BME280;48769;51.624;5.886;2022-10-16T05:51:10;101019.31;;;13.97;100.00
62708;BME280;48769;51.624;5.886;2022-10-16T05:53:37;101032.59;;;13.97;100.00
62708;BME280;48769;51.624;5.886;2022-10-16T05:56:03;101040.69;;;13.95;100.00
62708;BME280;48769;51.624;5.886;2022-10-16T05:58:32;101048.06;;;13.90;100.00
62708;BME280;48769;51.624;5.886;2022-10-16T06:01:01;101064.78;;;13.92;100.00
62708;BME280;48769;51.624;5.886;2022-10-16T06:03:26;101062.13;;;13.92;100.00
62708;BME280;48769;51.624;5.886;2022-10-16T06:05:52;101068.88;;;13.98;100.00
62708;BME280;48769;51.624;5.886;2022-10-16T06:08:18;101077.88;;;13.95;100.00
62708;BME280;48769;51.624;5.886;2022-10-16T06:10:45;101081.56;;;13.93;100.00
62708;BME280;48769;51.624;5.886;2022-10-16T06:13:11;101084.41;;;13.90;100.00
62708;BME280;48769;51.624;5.886;2022-10-16T06:15:37;101085.19;;;13.92;100.00
62708;BME280;48769;51.624;5.886;2022-10-16T06:18:04;101088.75;;;13.91;100.00
62708;BME280;48769;51.624;5.886;2022-10-16T06:20:30;101093.16;;;13.92;100.00
62708;BME280;48769;51.624;5.886;2022-10-16T06:22:55;101093.16;;;13.92;100.00
62708;BME280;48769;51.624;5.886;2022-10-16T06:25:20;101098.47;;;13.92;100.00
62708;BME280;48769;51.624;5.886;2022-10-16T06:27:45;101100.94;;;13.95;100.00
62708;BME280;48769;51.624;5.886;2022-10-16T06:30:11;101113.34;;;13.94;100.00
62708;BME280;48769;51.624;5.886;2022-10-16T06:32:36;101104.50;;;13.94;100.00
62708;BME280;48769;51.624;5.886;2022-10-16T06:35:01;101101.66;;;13.97;100.00
62708;BME280;48769;51.624;5.886;2022-10-16T06:37:27;101107.09;;;13.95;100.00
62708;BME280;48769;51.624;5.886;2022-10-16T06:39:52;101110.69;;;13.94;100.00
62708;BME280;48769;51.624;5.886;2022-10-16T06:42:18;101122.06;;;13.96;100.00
62708;BME280;48769;51.624;5.886;2022-10-16T06:44:44;101122.91;;;13.97;100.00
62708;BME280;48769;51.624;5.886;2022-10-16T06:47:09;101126.16;;;14.02;100.00
62708;BME280;48769;51.624;5.886;2022-10-16T06:49:35;101133.16;;;14.03;100.00
62708;BME280;48769;51.624;5.886;2022-10-16T06:52:00;101139.34;;;14.03;100.00
62708;BME280;48769;51.624;5.886;2022-10-16T06:54:26;101140.22;;;14.04;100.00
62708;BME280;48769;51.624;5.886;2022-10-16T06:56:52;101140.22;;;14.04;100.00
62708;BME280;48769;51.624;5.886;2022-10-16T06:59:19;101147.78;;;14.10;100.00
62708;BME280;48769;51.624;5.886;2022-10-16T07:01:45;101143.03;;;14.15;100.00
62708;BME280;48769;51.624;5.886;2022-10-16T07:04:10;101150.84;;;14.18;100.00
62708;BME280;48769;51.624;5.886;2022-10-16T07:06:35;101155.00;;;14.22;100.00
62708;BME280;48769;51.624;5.886;2022-10-16T07:09:04;101162.50;;;14.30;100.00
62708;BME280;48769;51.624;5.886;2022-10-16T07:11:30;101166.38;;;14.39;100.00
62708;BME280;48769;51.624;5.886;2022-10-16T07:13:55;101174.63;;;14.48;100.00
62708;BME280;48769;51.624;5.886;2022-10-16T07:16:26;101176.88;;;14.56;100.00
62708;BME280;48769;51.624;5.886;2022-10-16T07:18:53;101172.19;;;15.55;100.00
62708;BME280;48769;51.624;5.886;2022-10-16T07:21:22;101174.44;;;17.37;100.00
62708;BME280;48769;51.624;5.886;2022-10-16T07:23:51;101177.94;;;19.09;100.00
62708;BME280;48769;51.624;5.886;2022-10-16T07:26:17;101162.69;;;20.16;100.00
62708;BME280;48769;51.624;5.886;2022-10-16T07:28:43;101165.25;;;20.98;100.00
62708;BME280;48769;51.624;5.886;2022-10-16T07:31:11;101163.88;;;21.72;100.00
62708;BME280;48769;51.624;5.886;2022-10-16T07:33:39;101166.47;;;22.30;100.00
62708;BME280;48769;51.624;5.886;2022-10-16T07:36:05;101159.84;;;22.80;97.74
62708;BME280;48769;51.624;5.886;2022-10-16T07:38:31;101158.09;;;23.34;93.52
62708;BME280;48769;51.624;5.886;2022-10-16T07:40:58;101163.00;;;23.74;89.29
62708;BME280;48769;51.624;5.886;2022-10-16T07:43:23;101156.66;;;23.84;88.74
62708;BME280;48769;51.624;5.886;2022-10-16T07:45:50;101160.09;;;24.20;85.74
62708;BME280;48769;51.624;5.886;2022-10-16T07:48:16;101172.25;;;23.72;87.31
62708;BME280;48769;51.624;5.886;2022-10-16T07:50:46;101170.38;;;23.90;87.21
62708;BME280;48769;51.624;5.886;2022-10-16T07:53:11;101174.09;;;24.23;84.02
62708;BME280;48769;51.624;5.886;2022-10-16T07:55:37;101175.44;;;24.45;82.52
62708;BME280;48769;51.624;5.886;2022-10-16T07:58:03;101183.41;;;24.98;79.36
62708;BME280;48769;51.624;5.886;2022-10-16T08:00:29;101179.44;;;25.34;78.52
62708;BME280;48769;51.624;5.886;2022-10-16T08:02:56;101178.13;;;25.55;75.50
62708;BME280;48769;51.624;5.886;2022-10-16T08:05:25;101189.94;;;25.37;77.13
62708;BME280;48769;51.624;5.886;2022-10-16T08:07:50;101189.63;;;25.65;74.97
62708;BME280;48769;51.624;5.886;2022-10-16T08:10:17;101186.91;;;25.90;74.38
62708;BME280;48769;51.624;5.886;2022-10-16T08:12:43;101193.34;;;26.05;75.12
62708;BME280;48769;51.624;5.886;2022-10-16T08:15:09;101196.94;;;26.45;73.02
62708;BME280;48769;51.624;5.886;2022-10-16T08:17:34;101204.00;;;26.70;69.62
62708;BME280;48769;51.624;5.886;2022-10-16T08:20:00;101209.28;;;26.64;69.36
62708;BME280;48769;51.624;5.886;2022-10-16T08:22:25;101208.03;;;26.83;67.40
62708;BME280;48769;51.624;5.886;2022-10-16T08:24:51;101204.09;;;27.24;63.77
62708;BME280;48769;51.624;5.886;2022-10-16T08:27:16;101207.81;;;26.53;65.60
62708;BME280;48769;51.624;5.886;2022-10-16T08:29:41;101218.81;;;25.12;72.55
62708;BME280;48769;51.624;5.886;2022-10-16T08:32:07;101228.63;;;24.45;72.40
62708;BME280;48769;51.624;5.886;2022-10-16T08:34:32;101248.19;;;23.49;77.27
62708;BME280;48769;51.624;5.886;2022-10-16T08:36:57;101261.94;;;22.73;79.89
62708;BME280;48769;51.624;5.886;2022-10-16T08:39:22;101257.56;;;21.86;83.19
62708;BME280;48769;51.624;5.886;2022-10-16T08:50:00;101278.72;;;19.97;94.98
62708;BME280;48769;51.624;5.886;2022-10-16T08:52:30;101291.88;;;19.79;96.31
62708;BME280;48769;51.624;5.886;2022-10-16T08:54:57;101300.34;;;19.84;98.25
62708;BME280;48769;51.624;5.886;2022-10-16T08:57:25;101303.81;;;19.53;98.72
62708;BME280;48769;51.624;5.886;2022-10-16T08:59:52;101307.28;;;19.32;100.00
62708;BME280;48769;51.624;5.886;2022-10-16T09:02:35;101302.56;;;19.13;100.00
62708;BME280;48769;51.624;5.886;2022-10-16T09:08:04;101318.03;;;18.87;100.00
62708;BME280;48769;51.624;5.886;2022-10-16T09:13:29;101315.34;;;18.87;100.00
62708;BME280;48769;51.624;5.886;2022-10-16T09:16:22;101322.78;;;18.73;100.00
62708;BME280;48769;51.624;5.886;2022-10-16T09:19:12;101335.31;;;18.72;100.00
62708;BME280;48769;51.624;5.886;2022-10-16T09:21:42;101339.69;;;18.84;100.00
62708;BME280;48769;51.624;5.886;2022-10-16T09:24:17;101341.78;;;18.92;100.00
62708;BME280;48769;51.624;5.886;2022-10-16T09:26:44;101347.00;;;19.05;100.00
62708;BME280;48769;51.624;5.886;2022-10-16T09:29:14;101343.44;;;19.27;100.00
62708;BME280;48769;51.624;5.886;2022-10-16T09:31:41;101354.06;;;19.17;100.00
62708;BME280;48769;51.624;5.886;2022-10-16T09:34:36;101338.50;;;19.11;100.00
62708;BME280;48769;51.624;5.886;2022-10-16T09:37:09;101343.34;;;19.06;100.00
62708;BME280;48769;51.624;5.886;2022-10-16T09:39:52;101342.63;;;19.04;100.00
62708;BME280;48769;51.624;5.886;2022-10-16T09:42:31;101339.94;;;19.04;100.00
62708;BME280;48769;51.624;5.886;2022-10-16T09:44:57;101343.84;;;19.22;100.00
62708;BME280;48769;51.624;5.886;2022-10-16T09:47:25;101348.91;;;19.36;100.00
62708;BME280;48769;51.624;5.886;2022-10-16T09:49:59;101350.03;;;19.45;100.00
62708;BME280;48769;51.624;5.886;2022-10-16T09:52:28;101341.41;;;19.30;100.00
62708;BME280;48769;51.624;5.886;2022-10-16T09:54:59;101341.66;;;19.27;100.00
62708;BME280;48769;51.624;5.886;2022-10-16T10:00:30;101347.00;;;19.27;100.00
62708;BME280;48769;51.624;5.886;2022-10-16T10:02:55;101356.47;;;19.43;100.00
62708;BME280;48769;51.624;5.886;2022-10-16T10:05:26;101347.97;;;19.37;100.00
62708;BME280;48769;51.624;5.886;2022-10-16T10:08:06;101348.22;;;19.34;100.00
62708;BME280;48769;51.624;5.886;2022-10-16T10:10:49;101350.91;;;19.34;99.76
62708;BME280;48769;51.624;5.886;2022-10-16T10:13:24;101353.31;;;19.37;99.74
62708;BME280;48769;51.624;5.886;2022-10-16T10:15:52;101353.56;;;19.34;98.99
62708;BME280;48769;51.624;5.886;2022-10-16T10:18:20;101356.72;;;19.39;99.09
62708;BME280;48769;51.624;5.886;2022-10-16T10:20:57;101352.94;;;19.53;98.10
62708;BME280;48769;51.624;5.886;2022-10-16T10:23:24;101355.22;;;19.58;98.40
62708;BME280;48769;51.624;5.886;2022-10-16T10:34:26;101366.63;;;19.94;94.58
62708;BME280;48769;51.624;5.886;2022-10-16T10:39:53;101370.31;;;19.93;93.85
62708;BME280;48769;51.624;5.886;2022-10-16T10:42:53;101376.25;;;19.96;93.47
62708;BME280;48769;51.624;5.886;2022-10-16T10:45:42;101374.19;;;19.89;93.29
62708;BME280;48769;51.624;5.886;2022-10-16T10:51:25;101379.84;;;19.63;93.13
62708;BME280;48769;51.624;5.886;2022-10-16T10:54:28;101365.09;;;19.80;92.94
62708;BME280;48769;51.624;5.886;2022-10-16T10:57:04;101369.16;;;19.95;92.40
62708;BME280;48769;51.624;5.886;2022-10-16T10:59:53;101374.13;;;20.11;93.01
62708;BME280;48769;51.624;5.886;2022-10-16T11:02:37;101371.41;;;20.22;92.59
62708;BME280;48769;51.624;5.886;2022-10-16T11:07:57;101376.09;;;20.09;91.57
62708;BME280;48769;51.624;5.886;2022-10-16T11:10:52;101379.81;;;19.85;92.31
62708;BME280;48769;51.624;5.886;2022-10-16T11:16:31;101384.25;;;19.64;92.16
62708;BME280;48769;51.624;5.886;2022-10-16T11:19:21;101388.00;;;19.61;93.86
62708;BME280;48769;51.624;5.886;2022-10-16T11:27:08;101368.91;;;20.30;89.24
62708;BME280;48769;51.624;5.886;2022-10-16T11:29:40;101366.63;;;20.47;89.72
62708;BME280;48769;51.624;5.886;2022-10-16T11:32:20;101374.59;;;20.69;90.04
62708;BME280;48769;51.624;5.886;2022-10-16T11:34:51;101372.69;;;20.60;87.84
62708;BME280;48769;51.624;5.886;2022-10-16T11:37:21;101372.94;;;20.57;88.44
62708;BME280;48769;51.624;5.886;2022-10-16T11:39:49;101378.06;;;20.60;87.56
62708;BME280;48769;51.624;5.886;2022-10-16T11:42:22;101370.47;;;20.65;85.00
62708;BME280;48769;51.624;5.886;2022-10-16T11:45:07;101375.91;;;20.54;86.58
62708;BME280;48769;51.624;5.886;2022-10-16T11:47:43;101375.63;;;20.57;85.70
62708;BME280;48769;51.624;5.886;2022-10-16T11:50:26;101378.91;;;20.82;87.57
62708;BME280;48769;51.624;5.886;2022-10-16T11:55:44;101393.75;;;21.07;87.32
62708;BME280;48769;51.624;5.886;2022-10-16T12:01:03;101395.25;;;21.30;85.41
62708;BME280;48769;51.624;5.886;2022-10-16T12:08:54;101383.09;;;21.66;80.42
62708;BME280;48769;51.624;5.886;2022-10-16T12:13:51;101380.25;;;21.58;79.15
62708;BME280;48769;51.624;5.886;2022-10-16T12:18:45;101366.41;;;21.22;77.61
62708;BME280;48769;51.624;5.886;2022-10-16T12:21:13;101368.75;;;20.85;79.99
62708;BME280;48769;51.624;5.886;2022-10-16T12:23:50;101378.22;;;21.10;77.78
62708;BME280;48769;51.624;5.886;2022-10-16T12:26:32;101384.66;;;21.29;78.43
62708;BME280;48769;51.624;5.886;2022-10-16T12:29:13;101393.03;;;21.76;77.63
62708;BME280;48769;51.624;5.886;2022-10-16T12:31:44;101390.38;;;21.85;76.57
62708;BME280;48769;51.624;5.886;2022-10-16T12:34:28;101387.81;;;22.03;75.15
62708;BME280;48769;51.624;5.886;2022-10-16T12:36:55;101385.03;;;22.34;77.62
62708;BME280;48769;51.624;5.886;2022-10-16T12:39:27;101386.44;;;22.28;76.71
62708;BME280;48769;51.624;5.886;2022-10-16T12:44:54;101397.34;;;22.07;78.23
62708;BME280;48769;51.624;5.886;2022-10-16T12:49:54;101380.72;;;21.73;75.93
62708;BME280;48769;51.624;5.886;2022-10-16T12:54:58;101379.91;;;21.92;76.73
62708;BME280;48769;51.624;5.886;2022-10-16T12:58:27;101364.66;;;23.07;66.79
62708;BME280;48769;51.624;5.886;2022-10-16T13:00:52;101377.63;;;23.22;71.70
62708;BME280;48769;51.624;5.886;2022-10-16T13:03:53;101383.25;;;23.38;69.90
62708;BME280;48769;51.624;5.886;2022-10-16T13:06:33;101378.22;;;23.53;68.56
62708;BME280;48769;51.624;5.886;2022-10-16T13:19:08;101381.91;;;22.48;71.50
62708;BME280;48769;51.624;5.886;2022-10-16T13:22:00;101381.34;;;22.54;71.57
62708;BME280;48769;51.624;5.886;2022-10-16T13:30:15;101394.31;;;21.72;74.76
62708;BME280;48769;51.624;5.886;2022-10-16T13:32:45;101401.88;;;21.47;75.70
62708;BME280;48769;51.624;5.886;2022-10-16T13:35:19;101395.91;;;21.13;76.95
62708;BME280;48769;51.624;5.886;2022-10-16T13:37:45;101386.16;;;21.21;76.75
62708;BME280;48769;51.624;5.886;2022-10-16T13:40:22;101393.25;;;21.22;79.10
62708;BME280;48769;51.624;5.886;2022-10-16T13:42:51;101391.84;;;21.28;79.11
62708;BME280;48769;51.624;5.886;2022-10-16T13:45:22;101397.09;;;21.30;78.67
62708;BME280;48769;51.624;5.886;2022-10-16T13:47:47;101406.13;;;21.19;78.07
62708;BME280;48769;51.624;5.886;2022-10-16T13:50:16;101413.84;;;21.12;78.96
62708;BME280;48769;51.624;5.886;2022-10-16T13:52:42;101410.75;;;21.17;78.75
62708;BME280;48769;51.624;5.886;2022-10-16T13:55:16;101412.66;;;21.05;79.59
62708;BME280;48769;51.624;5.886;2022-10-16T13:57:43;101418.31;;;21.02;79.81
62708;BME280;48769;51.624;5.886;2022-10-16T14:00:23;101415.72;;;20.91;80.53
62708;BME280;48769;51.624;5.886;2022-10-16T14:03:14;101426.38;;;21.02;82.04
62708;BME280;48769;51.624;5.886;2022-10-16T14:05:56;101420.81;;;20.94;80.95
62708;BME280;48769;51.624;5.886;2022-10-16T14:08:25;101417.66;;;20.89;81.53
62708;BME280;48769;51.624;5.886;2022-10-16T14:10:53;101430.97;;;20.90;83.29
62708;BME280;48769;51.624;5.886;2022-10-16T14:13:23;101417.34;;;20.82;82.47
62708;BME280;48769;51.624;5.886;2022-10-16T14:15:51;101425.34;;;20.72;83.43
62708;BME280;48769;51.624;5.886;2022-10-16T14:18:23;101423.50;;;20.73;83.58
62708;BME280;48769;51.624;5.886;2022-10-16T14:20:49;101416.91;;;20.77;84.08
62708;BME280;48769;51.624;5.886;2022-10-16T14:23:28;101427.75;;;20.75;84.79
62708;BME280;48769;51.624;5.886;2022-10-16T14:26:05;101430.91;;;20.81;85.83
62708;BME280;48769;51.624;5.886;2022-10-16T14:28:31;101432.88;;;20.78;87.30
62708;BME280;48769;51.624;5.886;2022-10-16T14:30:59;101433.59;;;20.81;88.11